In Salah, Algeria
Current Conditions -  °F | °C
As of 11:00 PM on Friday 19 Dec 2014 (Local Time) from DAUI Reporting Station
Clear Clear  
Wind Chill: 14°   Ceiling: Unl
Heat Index: 14°   Visibility: 6mi
Dew Point:   Wind: 14mph
Humidity: 44%   Direction: 20°NNE
Pressure: 30.36"   Gusts: NA
Location:  27.19°N, 2.47°E
Report Text: DAUI 192200Z 02012KT CAVOK 14/02 Q1028
Loading
Personal Weather Stations






























Interactive Weather Map New forecast layout! Learn more

10-Day Weather Forecast

Advertisements
Track Severe Weather on mobile